createdAt,value
2023-04-18T00:01:36.109Z,7.86
2023-04-18T00:05:12.718Z,7.83
2023-04-18T00:09:21.148Z,7.80
2023-04-18T00:13:13.267Z,7.79
2023-04-18T00:17:29.443Z,7.77
2023-04-18T00:21:41.407Z,7.76
2023-04-18T00:26:25.417Z,7.73
2023-04-18T00:30:39.114Z,7.72
2023-04-18T00:34:39.842Z,7.72
2023-04-18T00:39:23.957Z,7.70
2023-04-18T00:43:56.097Z,7.70
2023-04-18T00:49:41.078Z,7.73
2023-04-18T00:54:05.021Z,7.74
2023-04-18T00:58:52.225Z,7.77
2023-04-18T01:03:05.447Z,7.74
2023-04-18T01:07:25.636Z,7.72
2023-04-18T01:11:33.891Z,7.72
2023-04-18T01:15:49.039Z,7.73
2023-04-18T01:20:17.963Z,7.74
2023-04-18T01:26:20.125Z,7.78
2023-04-18T01:30:48.518Z,7.80
2023-04-18T01:34:57.987Z,7.84
2023-04-18T01:39:29.659Z,7.82
2023-04-18T01:43:32.301Z,7.81
2023-04-18T01:47:30.032Z,7.82
2023-04-18T01:51:58.066Z,7.85
2023-04-18T01:56:21.934Z,7.85
2023-04-18T02:01:02.371Z,7.86
2023-04-18T02:05:03.713Z,7.83
2023-04-18T02:09:11.368Z,7.82
2023-04-18T02:15:53.881Z,7.83
2023-04-18T02:20:15.516Z,7.82
2023-04-18T02:24:43.548Z,7.79
2023-04-18T02:28:53.008Z,7.77
2023-04-18T02:33:05.413Z,7.75
2023-04-18T02:37:07.272Z,7.74
2023-04-18T02:41:44.305Z,7.77
2023-04-18T02:45:49.203Z,7.75
2023-04-18T02:49:57.067Z,7.78
2023-04-18T02:54:23.564Z,7.78
2023-04-18T02:58:33.381Z,7.77
2023-04-18T03:02:48.627Z,7.76
2023-04-18T03:06:18.537Z,7.79
2023-04-18T03:10:22.821Z,7.78
2023-04-18T03:14:35.002Z,7.77
2023-04-18T03:18:46.422Z,7.76
2023-04-18T03:23:08.547Z,7.75
2023-04-18T03:27:32.809Z,7.75
2023-04-18T03:31:58.436Z,7.74
2023-04-18T03:36:21.177Z,7.74
2023-04-18T03:40:28.651Z,7.72
2023-04-18T03:44:53.333Z,7.70
2023-04-18T03:49:20.760Z,7.67
2023-04-18T03:53:47.021Z,7.64
2023-04-18T03:58:31.346Z,7.64
2023-04-18T04:03:03.688Z,7.62
2023-04-18T04:10:54.520Z,7.70
2023-04-18T04:14:59.017Z,7.67
2023-04-18T04:19:03.217Z,7.68
2023-04-18T04:23:09.634Z,7.69
2023-04-18T04:27:24.432Z,7.64
2023-04-18T04:31:56.957Z,7.69
2023-04-18T04:35:52.445Z,7.67
2023-04-18T04:39:58.307Z,7.65
2023-04-18T04:44:12.131Z,7.70
2023-04-18T04:48:25.602Z,7.73
2023-04-18T04:52:49.873Z,7.79
2023-04-18T04:56:52.085Z,7.91
2023-04-18T05:00:56.429Z,8.01
2023-04-18T05:04:49.864Z,8.15
2023-04-18T05:09:33.905Z,8.22
2023-04-18T05:13:58.286Z,8.18
2023-04-18T05:18:05.405Z,8.17
2023-04-18T05:22:44.895Z,8.21
2023-04-18T05:26:53.156Z,8.23
2023-04-18T05:31:05.692Z,8.21
2023-04-18T05:35:10.922Z,8.27
2023-04-18T05:39:11.999Z,8.31
2023-04-18T05:43:38.348Z,8.36
2023-04-18T05:47:48.698Z,8.36
2023-04-18T05:52:02.350Z,8.40
2023-04-18T05:56:08.945Z,8.44
2023-04-18T06:00:17.132Z,8.44
2023-04-18T06:04:15.075Z,8.46
2023-04-18T06:08:39.052Z,8.48
2023-04-18T06:13:03.504Z,8.61
2023-04-18T06:17:20.213Z,8.75
2023-04-18T06:21:49.196Z,8.86
2023-04-18T06:25:45.748Z,8.98
2023-04-18T06:29:50.176Z,9.09
2023-04-18T06:33:47.719Z,9.24
2023-04-18T06:37:53.453Z,9.39
2023-04-18T06:42:01.557Z,9.51
2023-04-18T06:46:18.341Z,9.50
2023-04-18T06:50:22.931Z,9.59
2023-04-18T06:54:27.154Z,9.60
2023-04-18T06:58:58.657Z,9.62
2023-04-18T07:03:20.633Z,9.60
2023-04-18T07:07:29.093Z,9.54
2023-04-18T07:11:35.417Z,9.50
2023-04-18T07:15:31.947Z,9.55
2023-04-18T07:19:36.833Z,9.56
2023-04-18T07:24:15.452Z,9.60
2023-04-18T07:28:04.706Z,9.64
2023-04-18T07:31:47.876Z,9.65
2023-04-18T07:35:53.590Z,9.71
2023-04-18T07:39:56.683Z,9.76
2023-04-18T07:44:11.297Z,9.82
2023-04-18T07:48:17.343Z,9.91
2023-04-18T07:52:27.259Z,9.99
2023-04-18T07:56:21.627Z,10.09
2023-04-18T08:00:16.440Z,10.31
2023-04-18T08:04:03.113Z,10.56
2023-04-18T08:07:53.334Z,10.85
2023-04-18T08:11:47.494Z,11.00
2023-04-18T08:15:53.478Z,11.25
2023-04-18T08:19:49.681Z,11.54
2023-04-18T08:24:01.915Z,11.79
2023-04-18T08:27:10.830Z,12.11
2023-04-18T08:30:59.180Z,12.36
2023-04-18T08:34:42.799Z,12.72
2023-04-18T08:37:54.756Z,13.12
2023-04-18T08:41:40.509Z,13.33
2023-04-18T08:45:15.650Z,13.32
2023-04-18T08:48:29.829Z,13.39
2023-04-18T08:51:59.956Z,13.44
2023-04-18T08:55:53.265Z,13.49
2023-04-18T08:59:02.864Z,13.64
2023-04-18T09:02:15.756Z,13.92
2023-04-18T09:05:39.121Z,14.07
2023-04-18T09:08:48.177Z,14.06
2023-04-18T09:12:25.005Z,14.11
2023-04-18T09:15:42.722Z,14.15
2023-04-18T09:19:20.129Z,14.09
2023-04-18T09:22:49.195Z,14.05
2023-04-18T09:25:53.858Z,13.94
2023-04-18T09:28:57.004Z,13.89
2023-04-18T09:32:05.824Z,13.72
2023-04-18T09:35:24.378Z,13.73
2023-04-18T09:38:56.292Z,14.10
2023-04-18T09:42:19.463Z,13.97
2023-04-18T09:45:28.177Z,13.78
2023-04-18T09:48:47.831Z,13.74
2023-04-18T09:52:14.402Z,13.89
2023-04-18T09:55:47.279Z,14.18
2023-04-18T09:59:05.637Z,14.30
2023-04-18T10:02:23.528Z,14.56
2023-04-18T10:05:36.341Z,14.86
2023-04-18T10:08:56.272Z,15.08
2023-04-18T10:12:25.595Z,15.23
2023-04-18T10:15:38.992Z,15.42
2023-04-18T10:18:55.009Z,15.50
2023-04-18T10:22:08.259Z,15.29
2023-04-18T10:26:00.188Z,15.42
2023-04-18T10:29:50.740Z,15.39
2023-04-18T10:33:30.502Z,15.62
2023-04-18T10:37:05.996Z,15.77
2023-04-18T10:40:34.967Z,15.79
2023-04-18T10:44:15.670Z,15.78
2023-04-18T10:47:21.992Z,15.82
2023-04-18T10:51:01.390Z,15.83
2023-04-18T10:54:18.901Z,15.89
2023-04-18T10:57:57.558Z,15.95
2023-04-18T11:01:07.759Z,15.97
2023-04-18T11:04:19.614Z,16.18
2023-04-18T11:07:54.872Z,16.23
2023-04-18T11:11:20.446Z,16.47
2023-04-18T11:14:41.920Z,16.23
2023-04-18T11:18:03.287Z,16.36
2023-04-18T11:21:40.675Z,16.29
2023-04-18T11:25:11.050Z,16.46
2023-04-18T11:29:10.949Z,16.47
2023-04-18T11:32:24.715Z,16.37
2023-04-18T11:35:56.674Z,16.41
2023-04-18T11:39:08.784Z,16.32
2023-04-18T11:42:17.743Z,16.39
2023-04-18T11:45:27.548Z,16.28
2023-04-18T11:48:56.324Z,16.11
2023-04-18T11:52:15.666Z,15.83
2023-04-18T11:55:26.041Z,15.97
2023-04-18T11:58:37.275Z,15.89
2023-04-18T12:02:16.542Z,16.05
2023-04-18T12:05:27.347Z,16.40
2023-04-18T12:08:53.939Z,16.38
2023-04-18T12:12:23.424Z,16.66
2023-04-18T12:15:58.301Z,16.93
2023-04-18T12:19:11.372Z,17.13
2023-04-18T12:22:55.606Z,17.13
2023-04-18T12:26:14.511Z,17.34
2023-04-18T12:29:21.526Z,17.61
2023-04-18T12:32:37.879Z,17.86
2023-04-18T12:36:05.627Z,17.84
2023-04-18T12:39:30.974Z,17.67
2023-04-18T12:42:36.198Z,17.84
2023-04-18T12:45:42.396Z,17.91
2023-04-18T12:49:09.275Z,17.83
2023-04-18T12:52:20.123Z,18.01
2023-04-18T12:56:02.690Z,18.02
2023-04-18T12:59:30.429Z,18.14
2023-04-18T13:03:31.080Z,18.16
2023-04-18T13:07:02.406Z,17.85
2023-04-18T13:10:29.219Z,17.72
2023-04-18T13:13:56.465Z,17.43
2023-04-18T13:17:27.652Z,17.12
2023-04-18T13:20:50.001Z,16.99
2023-04-18T13:24:16.745Z,16.86
2023-04-18T13:28:05.478Z,16.91
2023-04-18T13:31:53.294Z,16.90
2023-04-18T13:35:21.665Z,16.70
2023-04-18T13:39:00.090Z,16.61
2023-04-18T13:42:49.096Z,16.47
2023-04-18T13:46:34.352Z,16.52
2023-04-18T13:49:58.087Z,16.40
2023-04-18T13:53:09.600Z,16.42
2023-04-18T13:56:16.672Z,16.74
2023-04-18T14:00:32.197Z,16.98
2023-04-18T14:04:14.865Z,16.86
2023-04-18T14:07:34.103Z,16.72
2023-04-18T14:11:01.338Z,16.79
2023-04-18T14:14:49.169Z,16.96
2023-04-18T14:18:12.000Z,16.91
2023-04-18T14:22:05.355Z,16.79
2023-04-18T14:26:14.119Z,16.71
2023-04-18T14:29:54.194Z,16.60
2023-04-18T14:34:04.735Z,16.59
2023-04-18T14:41:33.220Z,16.80
2023-04-18T14:44:47.489Z,16.66
2023-04-18T14:48:12.660Z,16.63
2023-04-18T14:51:15.842Z,16.59
2023-04-18T14:54:19.448Z,16.44
2023-04-18T14:57:25.707Z,16.39
2023-04-18T15:01:09.324Z,16.45
2023-04-18T15:04:31.099Z,16.36
2023-04-18T15:15:39.404Z,15.80
2023-04-18T15:19:02.602Z,15.73
2023-04-18T15:22:18.495Z,15.60
2023-04-18T15:26:05.394Z,15.49
2023-04-18T15:29:29.150Z,15.46
2023-04-18T15:32:36.983Z,15.43
2023-04-18T15:36:02.938Z,15.45
2023-04-18T15:39:29.497Z,15.53
2023-04-18T15:51:12.349Z,15.53
2023-04-18T15:54:23.244Z,15.37
2023-04-18T15:57:35.245Z,15.25
2023-04-18T16:01:40.815Z,15.25
2023-04-18T16:05:18.400Z,15.02
2023-04-18T16:09:10.853Z,14.97
2023-04-18T16:13:18.768Z,14.81
2023-04-18T16:17:04.314Z,14.67
2023-04-18T16:20:33.487Z,14.51
2023-04-18T16:24:18.901Z,14.48
2023-04-18T16:27:44.436Z,14.38
2023-04-18T16:31:12.050Z,14.26
2023-04-18T16:34:40.013Z,14.18
2023-04-18T16:38:05.511Z,14.03
2023-04-18T16:41:33.064Z,13.94
2023-04-18T16:44:53.892Z,13.78
2023-04-18T16:48:38.755Z,13.68
2023-04-18T16:52:00.158Z,13.61
2023-04-18T16:55:23.381Z,13.54
2023-04-18T16:58:57.112Z,13.48
2023-04-18T17:02:44.322Z,13.40
2023-04-18T17:07:00.804Z,13.30
2023-04-18T17:11:10.115Z,13.11
2023-04-18T17:15:08.448Z,12.97
2023-04-18T17:18:52.273Z,12.81
2023-04-18T17:22:54.692Z,12.67
2023-04-18T17:26:37.388Z,12.50
2023-04-18T17:30:04.902Z,12.34
2023-04-18T17:34:14.450Z,12.19
2023-04-18T17:38:26.592Z,12.01
2023-04-18T17:42:30.658Z,11.87
2023-04-18T17:47:01.074Z,11.68
2023-04-18T17:50:51.369Z,11.57
2023-04-18T17:55:36.895Z,11.44
2023-04-18T17:59:44.196Z,11.36
2023-04-18T18:03:49.879Z,11.28
2023-04-18T18:07:59.632Z,11.22
2023-04-18T18:12:44.016Z,11.18
2023-04-18T18:16:20.091Z,11.15
2023-04-18T18:20:31.421Z,11.14
2023-04-18T18:24:44.348Z,11.12
2023-04-18T18:28:34.368Z,11.10
2023-04-18T18:32:39.288Z,11.09
2023-04-18T18:41:04.714Z,11.12
2023-04-18T18:45:07.772Z,11.08
2023-04-18T18:49:22.111Z,11.03
2023-04-18T18:53:22.598Z,11.00
2023-04-18T18:57:12.479Z,10.96
2023-04-18T19:01:08.836Z,10.93
2023-04-18T19:05:26.909Z,10.93
2023-04-18T19:09:44.435Z,10.94
2023-04-18T19:14:03.461Z,10.96
2023-04-18T19:17:48.842Z,10.98
2023-04-18T19:21:47.294Z,11.00
2023-04-18T19:25:55.126Z,11.05
2023-04-18T19:29:45.538Z,10.95
2023-04-18T19:33:21.563Z,10.84
2023-04-18T19:37:38.364Z,10.75
2023-04-18T19:42:10.464Z,10.68
2023-04-18T19:46:00.078Z,10.63
2023-04-18T19:50:11.247Z,10.60
2023-04-18T19:54:27.555Z,10.58
2023-04-18T19:58:35.489Z,10.55
2023-04-18T20:02:29.647Z,10.54
2023-04-18T20:10:35.903Z,10.54
2023-04-18T20:14:25.610Z,10.51
2023-04-18T20:18:27.965Z,10.50
2023-04-18T20:22:55.469Z,10.46
2023-04-18T20:26:30.596Z,10.44
2023-04-18T20:30:26.930Z,10.35
2023-04-18T20:34:25.446Z,10.28
2023-04-18T20:38:42.774Z,10.18
2023-04-18T20:42:47.405Z,10.11
2023-04-18T20:47:02.350Z,10.03
2023-04-18T20:50:58.189Z,10.02
2023-04-18T20:55:11.460Z,10.03
2023-04-18T20:59:15.480Z,9.99
2023-04-18T21:03:30.118Z,9.95
2023-04-18T21:07:33.110Z,9.92
2023-04-18T21:11:45.408Z,9.90
2023-04-18T21:16:11.699Z,9.87
2023-04-18T21:20:19.549Z,9.85
2023-04-18T21:24:10.916Z,9.82
2023-04-18T21:28:07.946Z,9.78
2023-04-18T21:32:04.417Z,9.77
2023-04-18T21:36:17.141Z,9.72
2023-04-18T21:40:32.555Z,9.67
2023-04-18T21:44:38.050Z,9.65
2023-04-18T21:49:02.385Z,9.59
2023-04-18T21:53:41.501Z,9.49
2023-04-18T21:57:32.227Z,9.37
2023-04-18T22:01:27.342Z,9.27
2023-04-18T22:05:31.201Z,9.16
2023-04-18T22:09:43.241Z,9.06
2023-04-18T22:13:55.621Z,8.88
2023-04-18T22:18:24.485Z,8.72
2023-04-18T22:22:19.097Z,8.58
2023-04-18T22:26:23.530Z,8.45
2023-04-18T22:30:20.710Z,8.37
2023-04-18T22:34:24.918Z,8.29
2023-04-18T22:38:12.022Z,8.22
2023-04-18T22:42:33.778Z,8.17
2023-04-18T22:46:54.543Z,8.12
2023-04-18T22:51:14.369Z,8.08
2023-04-18T22:55:30.117Z,8.05
2023-04-18T22:59:36.823Z,8.02
2023-04-18T23:03:46.544Z,7.99
2023-04-18T23:07:49.801Z,7.97
2023-04-18T23:12:05.686Z,7.96
2023-04-18T23:16:18.810Z,7.96
2023-04-18T23:20:10.431Z,7.95
2023-04-18T23:24:09.597Z,7.95
2023-04-18T23:28:33.952Z,7.95
2023-04-18T23:32:44.151Z,7.97
2023-04-18T23:36:48.559Z,7.98
2023-04-18T23:40:53.481Z,8.00
2023-04-18T23:45:21.728Z,8.01
2023-04-18T23:49:45.763Z,8.05
2023-04-18T23:53:48.449Z,8.09
2023-04-18T23:57:45.159Z,8.14
